createdAt,value
2018-11-06T00:00:50.990Z,13.95
2018-11-06T00:02:03.205Z,13.91
2018-11-06T00:03:13.318Z,13.88
2018-11-06T00:04:23.481Z,13.87
2018-11-06T00:05:33.403Z,13.84
2018-11-06T00:06:43.065Z,13.86
2018-11-06T00:07:53.197Z,13.84
2018-11-06T00:09:05.507Z,13.87
2018-11-06T00:10:15.490Z,13.87
2018-11-06T00:11:25.872Z,13.94
2018-11-06T00:12:36.004Z,13.86
2018-11-06T00:13:46.207Z,13.84
2018-11-06T00:14:56.150Z,13.9
2018-11-06T00:16:06.147Z,13.9
2018-11-06T00:17:15.720Z,13.87
2018-11-06T00:18:25.335Z,13.81
2018-11-06T00:19:35.506Z,13.78
2018-11-06T00:20:45.625Z,13.84
2018-11-06T00:21:55.805Z,13.75
2018-11-06T00:23:05.942Z,13.84
2018-11-06T00:24:16.146Z,13.75
2018-11-06T00:25:25.993Z,13.79
2018-11-06T00:26:36.245Z,13.76
2018-11-06T00:27:46.004Z,13.7
2018-11-06T00:28:56.325Z,13.81
2018-11-06T00:30:08.319Z,13.69
2018-11-06T00:31:21.301Z,13.79
2018-11-06T00:32:33.834Z,13.75
2018-11-06T00:33:43.957Z,13.75
2018-11-06T00:34:53.852Z,13.73
2018-11-06T00:36:03.774Z,13.73
2018-11-06T00:37:13.459Z,13.76
2018-11-06T00:38:23.062Z,13.65
2018-11-06T00:39:33.255Z,13.69
2018-11-06T00:40:42.959Z,13.69
2018-11-06T00:41:53.117Z,13.75
2018-11-06T00:43:02.726Z,13.72
2018-11-06T00:44:12.591Z,13.7
2018-11-06T00:45:21.413Z,13.72
2018-11-06T00:46:31.353Z,13.62
2018-11-06T00:47:41.448Z,13.72
2018-11-06T00:48:51.590Z,13.7
2018-11-06T00:50:01.832Z,13.68
2018-11-06T00:51:12.104Z,13.68
2018-11-06T00:52:21.674Z,13.66
2018-11-06T00:53:31.811Z,13.57
2018-11-06T00:54:41.780Z,13.69
2018-11-06T00:55:51.912Z,13.72
2018-11-06T00:57:01.822Z,13.6
2018-11-06T00:58:11.779Z,13.7
2018-11-06T00:59:21.899Z,13.57
2018-11-06T01:00:32.165Z,13.68
2018-11-06T01:01:42.271Z,13.66
2018-11-06T01:02:52.373Z,13.66
2018-11-06T01:04:03.630Z,13.63
2018-11-06T01:05:13.496Z,13.62
2018-11-06T01:06:23.373Z,13.63
2018-11-06T01:07:33.561Z,13.69
2018-11-06T01:08:43.834Z,13.7
2018-11-06T01:09:54.652Z,13.63
2018-11-06T01:11:04.755Z,13.63
2018-11-06T01:12:14.628Z,13.68
2018-11-06T01:13:24.439Z,13.7
2018-11-06T01:14:33.972Z,13.68
2018-11-06T01:15:44.038Z,13.63
2018-11-06T01:16:54.107Z,13.63
2018-11-06T01:18:04.457Z,13.63
2018-11-06T01:19:14.317Z,13.65
2018-11-06T01:20:24.517Z,13.63
2018-11-06T01:21:34.348Z,13.65
2018-11-06T01:22:43.931Z,13.66
2018-11-06T01:23:54.114Z,13.63
2018-11-06T01:25:03.787Z,13.57
2018-11-06T01:26:13.866Z,13.6
2018-11-06T01:27:23.927Z,13.66
2018-11-06T01:28:34.005Z,13.55
2018-11-06T01:29:43.605Z,13.58
2018-11-06T01:30:53.524Z,13.58
2018-11-06T01:32:03.601Z,13.55
2018-11-06T01:33:13.156Z,13.53
2018-11-06T01:34:22.976Z,13.58
2018-11-06T01:35:33.321Z,13.57
2018-11-06T01:36:43.112Z,13.6
2018-11-06T01:37:53.290Z,13.62
2018-11-06T01:39:03.372Z,13.66
2018-11-06T01:40:13.174Z,13.66
2018-11-06T01:41:23.245Z,13.62
2018-11-06T01:42:33.096Z,13.54
2018-11-06T01:43:42.709Z,13.5
2018-11-06T01:44:52.521Z,13.55
2018-11-06T01:46:02.353Z,13.5
2018-11-06T01:47:12.423Z,13.53
2018-11-06T01:48:22.267Z,13.55
2018-11-06T01:49:31.814Z,13.53
2018-11-06T01:50:41.349Z,13.5
2018-11-06T01:51:51.166Z,13.48
2018-11-06T01:53:01.483Z,13.44
2018-11-06T01:54:11.427Z,13.42
2018-11-06T01:55:21.573Z,13.44
2018-11-06T01:56:31.415Z,13.39
2018-11-06T01:57:41.496Z,13.36
2018-11-06T01:58:51.297Z,13.37
2018-11-06T02:00:01.426Z,13.36
2018-11-06T02:01:11.234Z,13.36
2018-11-06T02:02:21.046Z,13.35
2018-11-06T02:03:30.854Z,13.29
2018-11-06T02:04:40.666Z,13.36
2018-11-06T02:05:50.739Z,13.35
2018-11-06T02:07:02.278Z,13.29
2018-11-06T02:08:12.364Z,13.25
2018-11-06T02:09:22.431Z,13.25
2018-11-06T02:10:32.248Z,13.27
2018-11-06T02:11:42.065Z,13.21
2018-11-06T02:12:51.928Z,13.2
2018-11-06T02:14:01.746Z,13.2
2018-11-06T02:15:11.539Z,13.17
2018-11-06T02:16:21.452Z,13.17
2018-11-06T02:17:31.020Z,13.17
2018-11-06T02:18:41.194Z,13.16
2018-11-06T02:19:51.263Z,13.14
2018-11-06T02:21:01.333Z,13.09
2018-11-06T02:22:11.147Z,13.1
2018-11-06T02:23:21.213Z,13.1
2018-11-06T02:24:31.326Z,13.07
2018-11-06T02:25:41.386Z,13.01
2018-11-06T02:26:51.272Z,13.09
2018-11-06T02:28:00.875Z,13.09
2018-11-06T02:29:10.951Z,13.06
2018-11-06T02:30:21.022Z,13.06
2018-11-06T02:31:30.763Z,13.09
2018-11-06T02:32:41.024Z,13.03
2018-11-06T02:33:51.108Z,12.99
2018-11-06T02:35:01.190Z,13.01
2018-11-06T02:36:11.466Z,13.03
2018-11-06T02:37:21.295Z,12.95
2018-11-06T02:38:31.211Z,12.95
2018-11-06T02:39:41.028Z,12.99
2018-11-06T02:40:50.852Z,12.96
2018-11-06T02:42:00.935Z,12.96
2018-11-06T02:43:10.487Z,13.01
2018-11-06T02:44:20.314Z,13.02
2018-11-06T02:45:30.185Z,13.01
2018-11-06T02:46:40.107Z,12.99
2018-11-06T02:47:50.265Z,13.02
2018-11-06T02:49:00.089Z,13.06
2018-11-06T02:50:10.737Z,12.99
2018-11-06T02:51:20.827Z,13.03
2018-11-06T02:52:31.094Z,12.99
2018-11-06T02:53:41.330Z,13.02
2018-11-06T02:54:50.921Z,13.02
2018-11-06T02:56:00.952Z,13.01
2018-11-06T02:57:11.352Z,12.98
2018-11-06T02:58:21.358Z,12.95
2018-11-06T02:59:31.422Z,13.02
2018-11-06T03:00:41.500Z,12.96
2018-11-06T03:01:51.330Z,13.01
2018-11-06T03:34:27.687Z,11.18
2018-11-06T03:35:37.505Z,11.23
2018-11-06T03:36:47.370Z,11.2
2018-11-06T03:37:57.594Z,11.33
2018-11-06T03:39:07.980Z,11.34
2018-11-06T03:40:17.785Z,11.39
2018-11-06T03:41:27.844Z,11.45
2018-11-06T03:42:37.653Z,11.48
2018-11-06T03:43:47.721Z,11.7
2018-11-06T03:44:57.551Z,11.76
2018-11-06T03:46:07.623Z,11.85
2018-11-06T03:47:17.433Z,12.07
2018-11-06T03:48:27.498Z,12.18
2018-11-06T03:49:37.586Z,12.22
2018-11-06T03:50:47.414Z,12.29
2018-11-06T03:51:57.547Z,12.47
2018-11-06T03:53:07.389Z,12.58
2018-11-06T03:54:17.454Z,12.56
2018-11-06T03:55:27.317Z,12.62
2018-11-06T03:56:37.371Z,12.71
2018-11-06T03:57:47.498Z,12.71
2018-11-06T03:58:57.316Z,12.86
2018-11-06T04:00:08.464Z,12.81
2018-11-06T04:01:18.564Z,12.89
2018-11-06T04:02:28.478Z,12.92
2018-11-06T04:03:38.296Z,13.02
2018-11-06T04:04:48.378Z,12.99
2018-11-06T04:05:58.184Z,13.02
2018-11-06T04:07:08.341Z,13.01
2018-11-06T04:08:18.137Z,13.03
2018-11-06T04:09:27.947Z,13.06
2018-11-06T04:10:38.027Z,13.07
2018-11-06T04:11:47.838Z,13.09
2018-11-06T04:12:57.925Z,13.07
2018-11-06T04:14:08.094Z,13.16
2018-11-06T04:15:17.733Z,13.13
2018-11-06T04:16:27.281Z,13.13
2018-11-06T04:17:37.417Z,13.16
2018-11-06T04:18:47.235Z,13.16
2018-11-06T04:19:56.774Z,13.16
2018-11-06T04:21:06.831Z,13.16
2018-11-06T04:22:16.624Z,13.16
2018-11-06T04:23:26.715Z,13.2
2018-11-06T04:24:36.795Z,13.19
2018-11-06T04:25:46.890Z,13.19
2018-11-06T04:26:56.548Z,13.2
2018-11-06T04:28:06.656Z,13.25
2018-11-06T04:29:16.729Z,13.24
2018-11-06T04:30:26.536Z,13.16
2018-11-06T04:31:36.346Z,13.16
2018-11-06T04:32:46.257Z,13.17
2018-11-06T04:33:56.579Z,13.19
2018-11-06T04:35:06.389Z,13.16
2018-11-06T04:36:16.485Z,13.11
2018-11-06T04:37:26.576Z,13.14
2018-11-06T04:38:36.696Z,13.17
2018-11-06T04:39:46.255Z,13.2
2018-11-06T04:40:56.302Z,13.14
2018-11-06T04:42:06.594Z,13.1
2018-11-06T04:43:16.419Z,13.14
2018-11-06T04:44:26.303Z,13.1
2018-11-06T04:45:36.376Z,13.06
2018-11-06T04:46:46.171Z,13.06
2018-11-06T04:47:56.255Z,13.07
2018-11-06T04:49:06.954Z,13.07
2018-11-06T04:50:19.161Z,13.03
2018-11-06T04:51:30.156Z,13.02
2018-11-06T04:52:40.226Z,13.02
2018-11-06T04:53:50.310Z,12.99
2018-11-06T04:55:00.132Z,13.06
2018-11-06T04:56:09.962Z,12.95
2018-11-06T04:57:19.781Z,12.98
2018-11-06T04:58:29.862Z,12.98
2018-11-06T04:59:39.660Z,12.98
2018-11-06T05:00:49.501Z,13.01
2018-11-06T05:01:59.119Z,13.01
2018-11-06T05:03:09.424Z,12.89
2018-11-06T05:04:19.579Z,12.91
2018-11-06T05:05:29.395Z,12.89
2018-11-06T05:06:39.239Z,12.92
2018-11-06T05:07:48.822Z,12.91
2018-11-06T05:08:58.621Z,12.89
2018-11-06T05:10:08.506Z,12.91
2018-11-06T05:11:18.104Z,12.92
2018-11-06T05:12:28.154Z,12.89
2018-11-06T05:13:38.017Z,12.81
2018-11-06T05:14:47.565Z,12.91
2018-11-06T05:15:57.125Z,12.89
2018-11-06T05:17:06.980Z,12.83
2018-11-06T05:18:17.060Z,12.77
2018-11-06T05:19:27.166Z,12.77
2018-11-06T05:20:37.256Z,12.78
2018-11-06T05:21:47.048Z,12.76
2018-11-06T05:22:57.125Z,12.78
2018-11-06T05:24:07.194Z,12.71
2018-11-06T05:25:17.747Z,12.73
2018-11-06T05:26:27.639Z,12.78
2018-11-06T05:27:37.346Z,12.73
2018-11-06T05:28:47.354Z,12.78
2018-11-06T05:29:57.462Z,12.71
2018-11-06T05:31:07.341Z,12.74
2018-11-06T05:32:17.677Z,12.74
2018-11-06T05:33:27.488Z,12.69
2018-11-06T05:34:37.386Z,12.71
2018-11-06T05:35:47.568Z,12.61
2018-11-06T05:36:57.364Z,12.7
2018-11-06T05:38:08.041Z,12.59
2018-11-06T05:39:18.461Z,12.55
2018-11-06T05:40:28.614Z,12.66
2018-11-06T05:41:38.444Z,12.62
2018-11-06T05:42:48.002Z,12.56
2018-11-06T05:43:58.182Z,12.66
2018-11-06T05:45:09.064Z,12.69
2018-11-06T05:46:18.870Z,12.65
2018-11-06T05:47:28.670Z,12.62
2018-11-06T05:48:38.806Z,12.59
2018-11-06T05:49:48.881Z,12.62
2018-11-06T05:50:59.602Z,12.58
2018-11-06T05:52:09.901Z,12.62
2018-11-06T05:53:19.969Z,12.65
2018-11-06T05:54:30.373Z,12.63
2018-11-06T05:55:40.460Z,12.61
2018-11-06T05:56:50.494Z,12.62
2018-11-06T05:58:00.035Z,12.61
2018-11-06T05:59:09.946Z,12.66
2018-11-06T06:00:20.234Z,12.58
2018-11-06T06:01:29.782Z,12.69
2018-11-06T06:02:39.893Z,12.59
2018-11-06T06:03:50.224Z,12.61
2018-11-06T06:05:00.352Z,12.66
2018-11-06T06:06:10.229Z,12.77
2018-11-06T06:07:20.309Z,12.76
2018-11-06T06:08:30.377Z,12.74
2018-11-06T06:09:40.214Z,12.77
2018-11-06T06:10:49.783Z,12.8
2018-11-06T06:12:00.015Z,12.84
2018-11-06T06:13:10.084Z,12.78
2018-11-06T06:14:20.163Z,12.89
2018-11-06T06:15:30.266Z,12.84
2018-11-06T06:16:40.740Z,12.86
2018-11-06T06:17:50.808Z,12.83
2018-11-06T06:19:00.634Z,12.86
2018-11-06T06:20:10.457Z,12.91
2018-11-06T06:21:20.302Z,12.99
2018-11-06T06:22:30.599Z,12.98
2018-11-06T06:23:41.048Z,13.07
2018-11-06T06:24:51.115Z,13.03
2018-11-06T06:26:00.934Z,13.03
2018-11-06T06:27:11.003Z,13.06
2018-11-06T06:28:21.180Z,13.02
2018-11-06T06:29:30.866Z,13.1
2018-11-06T06:30:40.410Z,13.06
2018-11-06T06:31:50.504Z,13.03
2018-11-06T06:33:00.610Z,13.02
2018-11-06T06:34:10.422Z,13.07
2018-11-06T06:35:20.536Z,13.11
2018-11-06T06:36:30.662Z,13.14
2018-11-06T06:37:40.743Z,13.09
2018-11-06T06:38:51.073Z,13.1
2018-11-06T06:40:01.615Z,13.17
2018-11-06T06:41:12.147Z,13.13
2018-11-06T06:42:22.545Z,13.17
2018-11-06T06:43:32.341Z,13.19
2018-11-06T06:44:42.137Z,13.16
2018-11-06T06:45:51.950Z,13.31
2018-11-06T06:47:00.857Z,13.28
2018-11-06T06:48:10.972Z,13.24
2018-11-06T06:49:20.781Z,13.36
2018-11-06T06:50:30.966Z,13.36
2018-11-06T06:51:40.765Z,13.36
2018-11-06T06:52:50.573Z,13.37
2018-11-06T06:54:01.016Z,13.4
2018-11-06T06:55:12.151Z,13.45
2018-11-06T06:56:22.868Z,13.51
2018-11-06T06:57:32.156Z,13.53
2018-11-06T06:58:42.303Z,13.58
2018-11-06T06:59:52.402Z,13.63
2018-11-06T07:01:02.035Z,13.58
2018-11-06T07:02:11.847Z,13.73
2018-11-06T07:03:22.023Z,13.76
2018-11-06T07:04:31.857Z,13.87
2018-11-06T07:05:41.679Z,13.86
2018-11-06T07:06:51.823Z,13.95
2018-11-06T07:08:01.392Z,14.03
2018-11-06T07:09:11.480Z,14.01
2018-11-06T07:10:21.545Z,14.16
2018-11-06T07:11:31.397Z,14.19
2018-11-06T07:12:41.340Z,14.3
2018-11-06T07:13:51.565Z,14.33
2018-11-06T07:15:01.113Z,14.44
2018-11-06T07:16:10.913Z,14.44
2018-11-06T07:17:21.007Z,14.48
2018-11-06T07:18:30.393Z,14.61
2018-11-06T07:19:40.605Z,14.59
2018-11-06T07:20:50.415Z,14.7
2018-11-06T07:22:00.387Z,14.66
2018-11-06T07:23:10.455Z,14.77
2018-11-06T07:24:20.596Z,14.89
2018-11-06T07:25:30.673Z,15.04
2018-11-06T07:26:40.519Z,15.19
2018-11-06T07:27:50.594Z,15.23
2018-11-06T07:29:02.905Z,15.35
2018-11-06T07:30:13.009Z,15.37
2018-11-06T07:31:23.073Z,15.43
2018-11-06T07:32:32.628Z,15.53
2018-11-06T07:33:42.689Z,15.6
2018-11-06T07:34:53.041Z,15.58
2018-11-06T07:36:04.788Z,15.62
2018-11-06T07:37:14.920Z,15.71
2018-11-06T07:38:24.749Z,15.68
2018-11-06T07:39:34.833Z,15.68
2018-11-06T07:40:45.167Z,15.75
2018-11-06T07:41:55.131Z,15.88
2018-11-06T07:43:05.234Z,15.67
2018-11-06T07:44:15.051Z,15.73
2018-11-06T07:45:25.123Z,15.68
2018-11-06T07:46:35.654Z,15.77
2018-11-06T07:47:45.575Z,15.84
2018-11-06T07:48:55.396Z,15.88
2018-11-06T07:50:06.109Z,15.88
2018-11-06T07:51:16.000Z,15.95
2018-11-06T07:52:25.832Z,15.96
2018-11-06T07:53:35.477Z,15.96
2018-11-06T07:54:45.573Z,16.06
2018-11-06T07:55:56.005Z,16.14
2018-11-06T07:57:06.290Z,16.27
2018-11-06T07:58:16.117Z,16.25
2018-11-06T07:59:26.261Z,16.3
2018-11-06T08:00:36.119Z,16.34
2018-11-06T08:01:46.253Z,16.39
2018-11-06T08:02:55.811Z,16.47
2018-11-06T08:04:06.019Z,16.52
2018-11-06T08:05:16.595Z,16.58
2018-11-06T08:06:27.026Z,16.65
2018-11-06T08:07:37.112Z,16.7
2018-11-06T08:08:46.986Z,16.82
2018-11-06T08:09:57.214Z,16.91
2018-11-06T08:11:08.874Z,17
2018-11-06T08:12:19.015Z,16.92
2018-11-06T08:13:28.828Z,17.06
2018-11-06T08:14:39.405Z,17.15
2018-11-06T08:15:49.882Z,17.12
2018-11-06T08:16:59.965Z,17.22
2018-11-06T08:18:11.501Z,17.27
2018-11-06T08:19:21.324Z,17.31
2018-11-06T08:20:31.261Z,17.31
2018-11-06T08:21:41.526Z,17.31
2018-11-06T08:22:51.089Z,17.45
2018-11-06T08:24:02.924Z,17.46
2018-11-06T08:25:12.774Z,17.52
2018-11-06T08:26:22.732Z,17.49
2018-11-06T08:27:32.655Z,17.62
2018-11-06T08:28:42.620Z,17.73
2018-11-06T08:29:52.699Z,17.68
2018-11-06T08:31:03.881Z,17.77
2018-11-06T08:32:15.521Z,17.88
2018-11-06T08:33:26.278Z,17.86
2018-11-06T08:34:36.486Z,17.98
2018-11-06T08:35:46.554Z,18.02
2018-11-06T08:36:56.917Z,18.08
2018-11-06T08:38:07.552Z,18.13
2018-11-06T08:39:17.375Z,18.08
2018-11-06T08:40:27.469Z,18.19
2018-11-06T08:41:37.566Z,18.14
2018-11-06T08:42:47.382Z,18.19
2018-11-06T08:43:57.474Z,18.2
2018-11-06T08:45:07.574Z,18.17
2018-11-06T08:46:17.478Z,18.23
2018-11-06T08:47:27.377Z,18.21
2018-11-06T08:48:37.435Z,18.21
2018-11-06T08:49:47.244Z,18.23
2018-11-06T08:50:56.791Z,18.2
2018-11-06T08:52:06.817Z,18.23
2018-11-06T08:53:16.657Z,18.17
2018-11-06T08:54:26.537Z,18.17
2018-11-06T08:55:36.810Z,18.2
2018-11-06T08:56:46.638Z,18.2
2018-11-06T08:57:56.469Z,18.29
2018-11-06T08:59:08.597Z,18.34
2018-11-06T09:00:18.715Z,18.38
2018-11-06T09:01:28.311Z,18.51
2018-11-06T09:02:38.131Z,18.47
2018-11-06T09:03:48.478Z,18.47
2018-11-06T09:04:58.122Z,18.51
2018-11-06T09:06:08.876Z,18.54
2018-11-06T09:07:18.052Z,18.54
2018-11-06T09:08:28.134Z,18.56
2018-11-06T09:09:38.217Z,18.56
2018-11-06T09:10:48.341Z,18.61
2018-11-06T09:11:58.428Z,18.71
2018-11-06T09:13:10.616Z,18.78
2018-11-06T09:14:20.507Z,18.79
2018-11-06T09:15:30.590Z,18.86
2018-11-06T09:16:40.461Z,18.86
2018-11-06T09:17:50.590Z,18.94
2018-11-06T09:19:01.371Z,18.84
2018-11-06T09:20:10.668Z,19.02
2018-11-06T09:21:20.497Z,18.97
2018-11-06T09:22:30.370Z,18.97
2018-11-06T09:23:40.302Z,19.06
2018-11-06T09:24:50.124Z,19.09
2018-11-06T09:25:59.938Z,19.1
2018-11-06T09:27:10.048Z,19.15
2018-11-06T09:28:20.116Z,19.17
2018-11-06T09:29:30.229Z,19.23
2018-11-06T09:30:40.120Z,19.28
2018-11-06T09:31:50.319Z,19.38
2018-11-06T09:33:00.418Z,19.47
2018-11-06T09:34:10.250Z,19.4
2018-11-06T09:35:20.384Z,19.38
2018-11-06T09:36:30.457Z,19.37
2018-11-06T09:37:40.524Z,19.43
2018-11-06T09:38:50.333Z,19.53
2018-11-06T09:40:01.225Z,19.55
2018-11-06T09:41:11.472Z,19.61
2018-11-06T09:42:21.774Z,19.67
2018-11-06T09:43:31.609Z,19.65
2018-11-06T09:44:41.681Z,19.72
2018-11-06T09:45:51.522Z,19.78
2018-11-06T09:47:01.333Z,19.83
2018-11-06T09:48:10.885Z,19.8
2018-11-06T09:49:20.705Z,19.78
2018-11-06T09:50:30.613Z,19.85
2018-11-06T09:51:40.704Z,19.86
2018-11-06T09:52:50.501Z,19.78
2018-11-06T09:54:02.412Z,19.79
2018-11-06T09:55:12.243Z,19.7
2018-11-06T09:56:22.389Z,19.64
2018-11-06T09:57:32.202Z,19.68
2018-11-06T09:58:42.027Z,19.64
2018-11-06T09:59:52.095Z,19.65
2018-11-06T10:01:02.189Z,19.65
2018-11-06T10:02:12.082Z,19.74
2018-11-06T10:03:22.182Z,19.74
2018-11-06T10:04:32.023Z,19.78
2018-11-06T10:05:41.840Z,19.75
2018-11-06T10:06:53.439Z,19.75
2018-11-06T10:08:03.985Z,19.85
2018-11-06T10:09:13.988Z,19.87
2018-11-06T10:10:23.695Z,19.85
2018-11-06T10:11:34.062Z,19.85
2018-11-06T10:12:44.150Z,19.9
2018-11-06T10:13:54.273Z,19.85
2018-11-06T10:15:04.374Z,19.85
2018-11-06T10:16:14.471Z,19.82
2018-11-06T10:17:24.589Z,19.8
2018-11-06T10:18:34.297Z,19.82
2018-11-06T10:19:44.377Z,19.79
2018-11-06T10:20:54.464Z,19.67
2018-11-06T10:22:04.552Z,19.68
2018-11-06T10:23:14.660Z,19.74
2018-11-06T10:24:24.752Z,19.75
2018-11-06T10:25:34.582Z,19.8
2018-11-06T10:26:44.852Z,19.8
2018-11-06T10:27:54.669Z,19.83
2018-11-06T10:29:07.843Z,19.82
2018-11-06T10:30:17.665Z,19.82
2018-11-06T10:31:27.478Z,19.93
2018-11-06T10:32:37.309Z,19.92
2018-11-06T10:33:47.317Z,19.92
2018-11-06T10:34:57.378Z,20.01
2018-11-06T10:36:07.220Z,19.95
2018-11-06T10:37:17.042Z,20.04
2018-11-06T10:38:26.781Z,20
2018-11-06T10:39:37.482Z,20.07
2018-11-06T10:40:48.608Z,20.1
2018-11-06T10:41:59.660Z,20.1
2018-11-06T10:43:10.603Z,20.27
2018-11-06T10:44:21.706Z,20.22
2018-11-06T10:45:32.760Z,20.27
2018-11-06T10:46:43.347Z,20.29
2018-11-06T10:47:54.274Z,20.25
2018-11-06T10:49:06.340Z,20.34
2018-11-06T10:50:17.194Z,20.22
2018-11-06T10:51:27.555Z,20.3
2018-11-06T10:52:38.185Z,20.38
2018-11-06T10:53:48.970Z,20.35
2018-11-06T10:54:59.429Z,20.42
2018-11-06T10:56:09.999Z,20.42
2018-11-06T10:57:20.340Z,20.49
2018-11-06T10:58:30.991Z,20.46
2018-11-06T10:59:41.876Z,20.54
2018-11-06T11:00:52.263Z,20.54
2018-11-06T11:02:02.778Z,20.57
2018-11-06T11:03:12.652Z,20.61
2018-11-06T11:04:23.908Z,20.67
2018-11-06T11:05:34.560Z,20.75
2018-11-06T11:06:45.428Z,20.82
2018-11-06T11:07:56.589Z,20.81
2018-11-06T11:09:09.388Z,20.88
2018-11-06T11:10:20.733Z,20.86
2018-11-06T11:11:32.083Z,20.94
2018-11-06T11:12:43.457Z,21.03
2018-11-06T11:13:54.085Z,21
2018-11-06T11:15:05.208Z,21.13
2018-11-06T11:16:16.938Z,21.12
2018-11-06T11:17:27.715Z,21.16
2018-11-06T11:18:38.074Z,21.19
2018-11-06T11:19:48.366Z,21.18
2018-11-06T11:20:58.705Z,21.18
2018-11-06T11:22:08.843Z,21.23
2018-11-06T11:23:19.807Z,21.27
2018-11-06T11:24:29.954Z,21.36
2018-11-06T11:25:40.236Z,21.36
2018-11-06T11:26:50.980Z,21.38
2018-11-06T11:28:01.081Z,21.48
2018-11-06T11:29:11.367Z,21.49
2018-11-06T11:30:21.647Z,21.52
2018-11-06T11:31:31.555Z,21.55
2018-11-06T11:32:41.977Z,21.49
2018-11-06T11:33:51.771Z,21.56
2018-11-06T11:35:02.082Z,21.49
2018-11-06T11:36:12.179Z,21.56
2018-11-06T11:37:21.780Z,21.59
2018-11-06T11:38:31.447Z,21.51
2018-11-06T11:39:41.310Z,21.49
2018-11-06T11:40:50.595Z,21.55
2018-11-06T11:42:02.528Z,21.66
2018-11-06T11:43:12.614Z,21.64
2018-11-06T11:44:22.736Z,21.66
2018-11-06T11:45:33.272Z,21.68
2018-11-06T11:46:43.124Z,21.64
2018-11-06T11:47:54.211Z,21.59
2018-11-06T11:49:03.782Z,21.64
2018-11-06T11:50:13.913Z,21.61
2018-11-06T11:51:24.002Z,21.68
2018-11-06T11:52:33.839Z,21.71
2018-11-06T11:53:43.989Z,21.73
2018-11-06T11:54:54.088Z,21.76
2018-11-06T11:56:03.634Z,21.71
2018-11-06T11:57:13.212Z,21.67
2018-11-06T11:58:23.554Z,21.71
2018-11-06T11:59:33.159Z,21.71
2018-11-06T12:00:43.265Z,21.7
2018-11-06T12:01:53.376Z,21.71
2018-11-06T12:03:03.684Z,21.77
2018-11-06T12:04:13.817Z,21.77
2018-11-06T12:05:23.742Z,21.74
2018-11-06T12:06:33.837Z,21.71
2018-11-06T12:07:43.945Z,21.74
2018-11-06T12:08:53.758Z,21.71
2018-11-06T12:10:05.391Z,21.77
2018-11-06T12:11:15.333Z,21.7
2018-11-06T12:12:25.423Z,21.71
2018-11-06T12:13:35.544Z,21.8
2018-11-06T12:14:45.627Z,21.71
2018-11-06T12:15:55.740Z,21.8
2018-11-06T12:17:06.094Z,21.82
2018-11-06T12:18:16.132Z,21.82
2018-11-06T12:19:26.526Z,21.8
2018-11-06T12:20:36.739Z,21.82
2018-11-06T12:21:46.605Z,21.83
2018-11-06T12:22:56.216Z,21.83
2018-11-06T12:24:06.600Z,21.85
2018-11-06T12:25:17.795Z,21.96
2018-11-06T12:26:29.229Z,21.85
2018-11-06T12:27:38.806Z,21.97
2018-11-06T12:28:48.680Z,21.83
2018-11-06T12:29:58.767Z,21.89
2018-11-06T12:31:09.318Z,21.93
2018-11-06T12:32:18.876Z,21.92
2018-11-06T12:33:29.097Z,21.82
2018-11-06T12:34:38.935Z,21.89
2018-11-06T12:35:48.523Z,21.82
2018-11-06T12:36:58.574Z,21.78
2018-11-06T12:38:11.169Z,21.78
2018-11-06T12:39:21.257Z,21.73
2018-11-06T12:40:30.880Z,21.74
2018-11-06T12:41:40.704Z,21.76
2018-11-06T12:42:50.604Z,21.76
2018-11-06T12:44:00.600Z,21.74
2018-11-06T12:45:10.166Z,21.8
2018-11-06T12:46:20.485Z,21.76
2018-11-06T12:47:30.831Z,21.8
2018-11-06T12:48:40.935Z,21.71
2018-11-06T12:49:51.014Z,21.7
2018-11-06T12:51:00.828Z,21.64
2018-11-06T12:52:10.787Z,21.64
2018-11-06T12:53:20.882Z,21.62
2018-11-06T12:54:30.681Z,21.56
2018-11-06T12:55:40.239Z,21.64
2018-11-06T12:56:50.566Z,21.52
2018-11-06T12:58:00.175Z,21.58
2018-11-06T12:59:09.992Z,21.45
2018-11-06T13:00:20.075Z,21.53
2018-11-06T13:01:29.629Z,21.53
2018-11-06T13:02:39.731Z,21.49
2018-11-06T13:03:49.540Z,21.48
2018-11-06T13:04:59.366Z,21.49
2018-11-06T13:06:09.471Z,21.55
2018-11-06T13:07:19.582Z,21.46
2018-11-06T13:08:29.697Z,21.4
2018-11-06T13:09:39.855Z,21.45
2018-11-06T13:10:49.489Z,21.36
2018-11-06T13:11:59.333Z,21.34
2018-11-06T13:13:09.432Z,21.31
2018-11-06T13:14:19.272Z,21.3
2018-11-06T13:15:29.592Z,21.34
2018-11-06T13:16:39.995Z,21.31
2018-11-06T13:17:49.837Z,21.28
2018-11-06T13:19:00.022Z,21.36
2018-11-06T13:20:09.837Z,21.31
2018-11-06T13:21:19.682Z,21.36
2018-11-06T13:22:29.756Z,21.3
2018-11-06T13:23:39.578Z,21.34
2018-11-06T13:24:49.873Z,21.18
2018-11-06T13:25:59.197Z,21.3
2018-11-06T13:27:09.859Z,21.21
2018-11-06T13:28:19.474Z,21.25
2018-11-06T13:29:29.586Z,21.3
2018-11-06T13:30:40.232Z,21.25
2018-11-06T13:31:49.289Z,21.27
2018-11-06T13:32:59.249Z,21.21
2018-11-06T13:34:08.853Z,21.25
2018-11-06T13:35:18.685Z,21.25
2018-11-06T13:36:28.499Z,21.23
2018-11-06T13:37:37.808Z,21.19
2018-11-06T13:38:47.872Z,21.15
2018-11-06T13:39:57.452Z,21.18
2018-11-06T13:41:07.959Z,21.11
2018-11-06T13:42:17.937Z,21.13
2018-11-06T13:43:28.845Z,21.11
2018-11-06T13:44:40.711Z,21.08
2018-11-06T13:45:53.170Z,21.01
2018-11-06T13:47:02.884Z,21.01
2018-11-06T13:48:12.745Z,20.97
2018-11-06T13:49:22.876Z,20.94
2018-11-06T13:50:32.307Z,20.9
2018-11-06T13:51:42.121Z,20.9
2018-11-06T13:52:52.192Z,20.83
2018-11-06T13:54:02.033Z,20.82
2018-11-06T13:55:11.887Z,20.79
2018-11-06T13:56:21.775Z,20.82
2018-11-06T13:57:32.140Z,20.83
2018-11-06T13:58:42.258Z,20.71
2018-11-06T13:59:52.337Z,20.72
2018-11-06T14:01:02.765Z,20.72
2018-11-06T14:02:12.896Z,20.64
2018-11-06T14:03:22.774Z,20.63
2018-11-06T14:04:33.069Z,20.6
2018-11-06T14:05:42.678Z,20.51
2018-11-06T14:06:51.980Z,20.61
2018-11-06T14:08:01.826Z,20.48
2018-11-06T14:09:11.858Z,20.51
2018-11-06T14:10:21.949Z,20.57
2018-11-06T14:11:32.160Z,20.48
2018-11-06T14:12:42.039Z,20.44
2018-11-06T14:13:52.149Z,20.46
2018-11-06T14:15:01.978Z,20.3
2018-11-06T14:16:11.805Z,20.4
2018-11-06T14:17:21.618Z,20.35
2018-11-06T14:25:58.131Z,20.12
2018-11-06T14:27:11.373Z,20.18
2018-11-06T14:28:21.798Z,20
2018-11-06T14:29:31.904Z,20
2018-11-06T14:30:41.733Z,20.1
2018-11-06T14:31:53.272Z,20.02
2018-11-06T14:33:03.722Z,19.95
2018-11-06T14:34:13.820Z,19.93
2018-11-06T14:35:23.655Z,19.82
2018-11-06T14:36:33.484Z,19.83
2018-11-06T14:37:43.302Z,19.85
2018-11-06T14:38:52.876Z,19.79
2018-11-06T14:40:02.713Z,19.65
2018-11-06T14:41:12.543Z,19.67
2018-11-06T14:42:22.924Z,19.61
2018-11-06T14:43:33.022Z,19.65
2018-11-06T14:44:43.113Z,19.56
2018-11-06T14:45:53.181Z,19.52
2018-11-06T14:47:02.741Z,19.43
2018-11-06T14:48:13.052Z,19.45
2018-11-06T14:49:23.735Z,19.4
2018-11-06T14:50:33.389Z,19.4
2018-11-06T14:51:42.765Z,19.31
2018-11-06T14:52:52.600Z,19.25
2018-11-06T14:54:02.729Z,19.25
2018-11-06T14:55:12.550Z,19.16
2018-11-06T14:56:21.848Z,19.19
2018-11-06T14:57:31.693Z,19.12
2018-11-06T14:58:41.564Z,19.1
2018-11-06T14:59:51.646Z,19.02
2018-11-06T15:01:01.492Z,18.91
2018-11-06T15:02:11.032Z,18.91
2018-11-06T15:03:20.335Z,18.94
2018-11-06T15:04:29.896Z,18.84
2018-11-06T15:05:40.218Z,18.86
2018-11-06T15:06:50.602Z,18.86
2018-11-06T15:08:01.879Z,18.79
2018-11-06T15:09:11.977Z,18.71
2018-11-06T15:10:21.618Z,18.68
2018-11-06T15:11:31.433Z,18.61
2018-11-06T15:12:41.114Z,18.71
2018-11-06T15:13:51.596Z,18.59
2018-11-06T15:15:01.670Z,18.54
2018-11-06T15:16:11.595Z,18.54
2018-11-06T15:17:21.149Z,18.49
2018-11-06T15:18:30.429Z,18.53
2018-11-06T15:19:39.989Z,18.45
2018-11-06T15:20:50.061Z,18.47
2018-11-06T15:22:00.421Z,18.45
2018-11-06T15:23:09.979Z,18.42
2018-11-06T15:24:20.056Z,18.45
2018-11-06T15:25:30.147Z,18.39
2018-11-06T15:26:39.713Z,18.32
2018-11-06T15:27:49.282Z,18.31
2018-11-06T15:28:59.401Z,18.35
2018-11-06T15:30:09.238Z,18.31
2018-11-06T15:31:19.354Z,18.16
2018-11-06T15:32:29.912Z,18.19
2018-11-06T15:33:40.039Z,18.26
2018-11-06T15:34:50.129Z,18.23
2018-11-06T15:36:00.431Z,18.17
2018-11-06T15:37:10.622Z,18.19
2018-11-06T15:38:19.913Z,18.17
2018-11-06T15:39:29.365Z,18.11
2018-11-06T15:40:38.879Z,18.11
2018-11-06T15:41:48.889Z,18.14
2018-11-06T15:42:58.954Z,18.1
2018-11-06T15:44:08.492Z,17.99
2018-11-06T15:45:18.312Z,18.06